createdAt,value
2017-03-20T00:00:13.227Z,12.30
2017-03-20T00:01:19.226Z,12.25
2017-03-20T00:02:17.451Z,12.25
2017-03-20T00:03:19.517Z,12.28
2017-03-20T00:04:18.713Z,12.20
2017-03-20T00:05:14.317Z,12.24
2017-03-20T00:06:19.516Z,12.23
2017-03-20T00:07:18.772Z,12.27
2017-03-20T00:08:19.182Z,12.31
2017-03-20T00:09:14.485Z,12.19
2017-03-20T00:10:19.685Z,12.31
2017-03-20T00:11:13.877Z,12.25
2017-03-20T00:12:19.217Z,12.25
2017-03-20T00:13:28.538Z,12.23
2017-03-20T00:14:19.026Z,12.13
2017-03-20T00:15:14.673Z,12.22
2017-03-20T00:16:23.155Z,12.28
2017-03-20T00:17:18.819Z,12.23
2017-03-20T00:18:22.931Z,12.21
2017-03-20T00:19:19.207Z,12.25
2017-03-20T00:20:20.925Z,12.29
2017-03-20T00:21:19.117Z,12.38
2017-03-20T00:22:19.039Z,12.34
2017-03-20T00:23:13.083Z,12.34
2017-03-20T00:24:13.554Z,12.33
2017-03-20T00:25:19.776Z,12.36
2017-03-20T00:26:18.701Z,12.18
2017-03-20T00:27:21.645Z,12.22
2017-03-20T00:28:19.495Z,12.36
2017-03-20T00:29:18.694Z,12.35
2017-03-20T00:31:13.684Z,12.25
2017-03-20T00:32:13.636Z,12.20
2017-03-20T00:33:12.425Z,12.29
2017-03-20T00:34:21.015Z,12.25
2017-03-20T00:35:13.064Z,12.32
2017-03-20T00:36:18.950Z,12.27
2017-03-20T00:37:19.528Z,12.26
2017-03-20T00:38:12.639Z,12.21
2017-03-20T00:39:18.554Z,12.25
2017-03-20T00:40:16.828Z,12.13
2017-03-20T00:41:13.419Z,12.20
2017-03-20T00:42:13.100Z,12.10
2017-03-20T00:43:14.926Z,12.12
2017-03-20T00:44:14.376Z,12.10
2017-03-20T00:45:20.232Z,12.11
2017-03-20T00:46:19.696Z,12.15
2017-03-20T00:47:21.677Z,12.15
2017-03-20T00:48:12.518Z,12.20
2017-03-20T00:49:13.713Z,12.23
2017-03-20T00:50:18.292Z,12.13
2017-03-20T00:51:19.696Z,12.14
2017-03-20T00:52:20.829Z,12.15
2017-03-20T00:53:21.639Z,12.23
2017-03-20T00:54:13.388Z,12.09
2017-03-20T00:55:15.707Z,12.04
2017-03-20T00:56:28.439Z,12.02
2017-03-20T00:57:19.597Z,12.06
2017-03-20T00:58:14.221Z,12.21
2017-03-20T00:59:16.758Z,12.22
2017-03-20T01:00:26.800Z,12.13
2017-03-20T01:01:19.804Z,12.21
2017-03-20T01:02:23.680Z,12.24
2017-03-20T01:03:22.899Z,12.23
2017-03-20T01:04:21.781Z,12.22
2017-03-20T01:05:19.774Z,12.13
2017-03-20T01:06:25.690Z,12.17
2017-03-20T01:07:14.234Z,12.05
2017-03-20T01:08:14.470Z,12.06
2017-03-20T01:09:26.074Z,12.15
2017-03-20T01:10:13.752Z,12.09
2017-03-20T01:11:18.677Z,12.11
2017-03-20T01:12:18.344Z,12.09
2017-03-20T01:13:22.917Z,12.14
2017-03-20T01:14:13.912Z,12.17
2017-03-20T01:15:14.367Z,12.15
2017-03-20T01:16:16.742Z,12.11
2017-03-20T01:17:19.554Z,12.20
2017-03-20T01:18:16.785Z,12.19
2017-03-20T01:19:19.292Z,12.25
2017-03-20T01:20:23.015Z,12.09
2017-03-20T01:21:28.833Z,12.21
2017-03-20T01:22:12.677Z,12.09
2017-03-20T01:23:22.035Z,12.12
2017-03-20T01:24:19.746Z,12.14
2017-03-20T01:25:25.461Z,12.21
2017-03-20T01:26:13.160Z,12.27
2017-03-20T01:27:13.961Z,12.18
2017-03-20T01:28:20.615Z,12.13
2017-03-20T01:29:13.150Z,12.02
2017-03-20T01:30:21.858Z,12.10
2017-03-20T01:31:21.008Z,12.19
2017-03-20T01:32:18.673Z,12.14
2017-03-20T01:33:25.568Z,12.05
2017-03-20T01:34:15.701Z,12.13
2017-03-20T01:35:12.723Z,12.08
2017-03-20T01:36:12.801Z,12.17
2017-03-20T01:37:13.433Z,12.24
2017-03-20T01:38:16.642Z,12.18
2017-03-20T01:39:16.892Z,12.27
2017-03-20T01:40:26.560Z,12.22
2017-03-20T01:41:19.157Z,11.97
2017-03-20T01:42:13.189Z,12.04
2017-03-20T01:43:18.785Z,12.15
2017-03-20T01:44:13.558Z,12.15
2017-03-20T01:45:13.393Z,12.26
2017-03-20T01:46:13.366Z,12.20
2017-03-20T01:47:18.641Z,12.16
2017-03-20T01:48:13.254Z,12.14
2017-03-20T01:49:18.990Z,12.12
2017-03-20T01:50:19.100Z,12.05
2017-03-20T01:51:20.734Z,12.05
2017-03-20T01:52:25.568Z,12.02
2017-03-20T01:53:21.975Z,12.08
2017-03-20T01:54:20.658Z,12.02
2017-03-20T01:55:20.081Z,12.06
2017-03-20T01:56:21.416Z,12.09
2017-03-20T01:57:19.608Z,12.11
2017-03-20T01:58:22.830Z,12.19
2017-03-20T01:59:23.364Z,12.21
2017-03-20T02:00:14.491Z,11.92
2017-03-20T02:01:18.694Z,11.87
2017-03-20T02:02:23.568Z,11.94
2017-03-20T02:03:13.415Z,11.81
2017-03-20T02:04:23.630Z,12.00
2017-03-20T02:05:13.446Z,12.09
2017-03-20T02:06:19.031Z,12.07
2017-03-20T02:07:19.342Z,12.13
2017-03-20T02:08:13.478Z,12.08
2017-03-20T02:09:19.328Z,11.96
2017-03-20T02:10:19.725Z,12.00
2017-03-20T02:11:13.434Z,12.04
2017-03-20T02:12:25.448Z,12.11
2017-03-20T02:13:20.004Z,12.12
2017-03-20T02:14:28.122Z,12.14
2017-03-20T02:15:16.441Z,12.10
2017-03-20T02:16:14.082Z,12.02
2017-03-20T02:17:19.381Z,12.01
2017-03-20T02:18:21.426Z,12.08
2017-03-20T02:19:19.842Z,12.16
2017-03-20T02:20:28.109Z,12.03
2017-03-20T02:21:12.146Z,12.06
2017-03-20T02:22:24.595Z,12.11
2017-03-20T02:23:14.140Z,12.02
2017-03-20T02:24:19.162Z,12.09
2017-03-20T02:25:13.362Z,12.10
2017-03-20T02:26:18.571Z,12.08
2017-03-20T02:27:20.575Z,12.19
2017-03-20T02:28:12.835Z,12.20
2017-03-20T02:29:19.372Z,12.20
2017-03-20T02:30:13.461Z,12.09
2017-03-20T02:31:19.495Z,12.14
2017-03-20T02:32:14.235Z,12.11
2017-03-20T02:33:18.900Z,12.13
2017-03-20T02:34:19.663Z,12.09
2017-03-20T02:35:19.359Z,12.11
2017-03-20T02:36:18.929Z,12.08
2017-03-20T02:37:20.621Z,12.07
2017-03-20T02:38:13.853Z,12.06
2017-03-20T02:39:13.526Z,12.10
2017-03-20T02:40:13.634Z,12.12
2017-03-20T02:41:19.260Z,12.19
2017-03-20T02:42:12.312Z,12.21
2017-03-20T02:43:13.335Z,12.15
2017-03-20T02:44:19.198Z,11.90
2017-03-20T02:45:13.257Z,11.98
2017-03-20T02:46:12.478Z,12.01
2017-03-20T02:47:22.107Z,11.94
2017-03-20T02:48:18.942Z,12.02
2017-03-20T02:49:19.402Z,12.02
2017-03-20T02:50:13.602Z,12.00
2017-03-20T02:51:19.389Z,11.97
2017-03-20T02:52:16.878Z,12.03
2017-03-20T02:53:16.730Z,12.08
2017-03-20T02:54:16.977Z,12.04
2017-03-20T02:55:19.233Z,11.95
2017-03-20T02:56:18.749Z,11.99
2017-03-20T02:57:13.187Z,11.97
2017-03-20T02:58:18.707Z,12.02
2017-03-20T02:59:20.386Z,12.00
2017-03-20T03:00:23.046Z,12.10
2017-03-20T03:01:15.898Z,12.13
2017-03-20T03:02:22.662Z,11.93
2017-03-20T03:03:21.915Z,12.02
2017-03-20T03:04:13.591Z,12.07
2017-03-20T03:05:16.773Z,12.07
2017-03-20T03:06:15.787Z,11.97
2017-03-20T03:07:22.526Z,12.01
2017-03-20T03:08:18.637Z,12.09
2017-03-20T03:09:10.405Z,12.05
2017-03-20T03:10:23.695Z,12.02
2017-03-20T03:11:14.802Z,12.00
2017-03-20T03:12:19.019Z,12.01
2017-03-20T03:13:21.053Z,12.09
2017-03-20T03:14:10.753Z,12.15
2017-03-20T03:15:23.104Z,12.07
2017-03-20T03:16:19.452Z,12.05
2017-03-20T03:17:13.600Z,12.10
2017-03-20T03:18:22.458Z,11.97
2017-03-20T03:19:22.457Z,12.05
2017-03-20T03:20:19.437Z,12.07
2017-03-20T03:21:18.466Z,12.09
2017-03-20T03:22:27.572Z,12.07
2017-03-20T03:23:16.779Z,11.95
2017-03-20T03:24:13.365Z,11.95
2017-03-20T03:25:19.135Z,11.99
2017-03-20T03:26:19.361Z,12.04
2017-03-20T03:27:19.093Z,12.07
2017-03-20T03:28:13.364Z,12.11
2017-03-20T03:29:19.718Z,12.08
2017-03-20T03:30:23.163Z,12.07
2017-03-20T03:31:18.976Z,11.95
2017-03-20T03:32:19.111Z,12.06
2017-03-20T03:33:21.246Z,12.06
2017-03-20T03:34:19.442Z,11.96
2017-03-20T03:35:18.261Z,12.06
2017-03-20T03:36:13.303Z,12.00
2017-03-20T03:37:19.758Z,11.94
2017-03-20T03:38:19.093Z,12.09
2017-03-20T03:39:18.868Z,12.13
2017-03-20T03:40:19.047Z,12.18
2017-03-20T03:41:14.662Z,12.06
2017-03-20T03:42:19.113Z,12.11
2017-03-20T03:43:19.445Z,12.05
2017-03-20T03:44:13.900Z,12.12
2017-03-20T03:45:23.972Z,12.19
2017-03-20T03:46:13.515Z,12.18
2017-03-20T03:47:12.240Z,12.25
2017-03-20T03:48:19.296Z,12.19
2017-03-20T03:49:18.972Z,12.04
2017-03-20T03:50:13.172Z,12.05
2017-03-20T03:51:13.261Z,12.03
2017-03-20T03:52:20.108Z,12.04
2017-03-20T03:53:24.529Z,11.98
2017-03-20T03:54:18.707Z,12.04
2017-03-20T03:55:13.210Z,11.92
2017-03-20T03:56:19.364Z,12.02
2017-03-20T03:57:18.969Z,12.01
2017-03-20T03:58:16.218Z,12.16
2017-03-20T03:59:19.201Z,12.18
2017-03-20T04:00:13.223Z,12.18
2017-03-20T04:01:18.431Z,12.14
2017-03-20T04:02:21.847Z,12.14
2017-03-20T04:03:22.696Z,12.21
2017-03-20T04:04:18.576Z,12.20
2017-03-20T04:05:19.602Z,12.28
2017-03-20T04:06:19.141Z,12.13
2017-03-20T04:07:19.046Z,12.18
2017-03-20T04:08:14.149Z,12.20
2017-03-20T04:09:24.393Z,12.15
2017-03-20T04:10:19.058Z,12.12
2017-03-20T04:11:13.675Z,12.10
2017-03-20T04:12:19.450Z,12.11
2017-03-20T04:13:19.075Z,12.04
2017-03-20T04:14:19.235Z,12.00
2017-03-20T04:15:14.748Z,12.09
2017-03-20T04:16:19.191Z,12.08
2017-03-20T04:17:18.862Z,11.98
2017-03-20T04:18:19.048Z,12.03
2017-03-20T04:19:19.212Z,12.04
2017-03-20T04:20:20.447Z,12.12
2017-03-20T04:21:21.714Z,12.06
2017-03-20T04:22:19.607Z,12.13
2017-03-20T04:23:18.849Z,11.99
2017-03-20T04:24:19.044Z,11.96
2017-03-20T04:25:12.108Z,12.02
2017-03-20T04:26:19.730Z,11.89
2017-03-20T04:27:14.398Z,11.97
2017-03-20T04:28:19.525Z,12.00
2017-03-20T04:29:19.249Z,12.04
2017-03-20T04:30:24.631Z,12.00
2017-03-20T04:31:21.690Z,11.90
2017-03-20T04:32:21.736Z,11.88
2017-03-20T04:33:19.535Z,11.98
2017-03-20T04:34:28.129Z,12.08
2017-03-20T04:35:18.796Z,12.05
2017-03-20T04:36:23.890Z,12.04
2017-03-20T04:37:19.517Z,11.94
2017-03-20T04:38:14.033Z,11.93
2017-03-20T04:39:19.519Z,12.01
2017-03-20T04:40:14.256Z,11.99
2017-03-20T04:41:19.630Z,12.03
2017-03-20T04:42:13.708Z,11.91
2017-03-20T04:43:28.178Z,11.97
2017-03-20T04:44:15.708Z,11.93
2017-03-20T04:45:24.251Z,11.74
2017-03-20T04:46:16.930Z,11.74
2017-03-20T04:47:24.509Z,11.70
2017-03-20T04:48:19.452Z,11.85
2017-03-20T04:49:19.513Z,11.85
2017-03-20T04:50:27.901Z,11.99
2017-03-20T04:51:19.650Z,12.01
2017-03-20T04:52:13.828Z,11.93
2017-03-20T04:53:17.114Z,12.01
2017-03-20T04:54:19.205Z,12.02
2017-03-20T04:55:13.419Z,12.04
2017-03-20T04:56:19.541Z,11.97
2017-03-20T04:57:18.640Z,11.96
2017-03-20T04:58:12.895Z,12.04
2017-03-20T04:59:19.140Z,11.90
2017-03-20T05:00:21.753Z,11.83
2017-03-20T05:01:21.700Z,11.91
2017-03-20T05:02:18.814Z,11.92
2017-03-20T05:03:25.712Z,11.90
2017-03-20T05:04:19.159Z,11.83
2017-03-20T05:05:18.934Z,11.92
2017-03-20T05:06:18.402Z,11.88
2017-03-20T05:07:14.825Z,11.95
2017-03-20T05:08:19.610Z,11.97
2017-03-20T05:09:18.840Z,11.82
2017-03-20T05:10:21.995Z,11.81
2017-03-20T05:11:19.183Z,11.93
2017-03-20T05:12:19.138Z,11.94
2017-03-20T05:13:19.480Z,11.80
2017-03-20T05:14:18.643Z,11.95
2017-03-20T05:15:13.854Z,11.96
2017-03-20T05:16:13.785Z,11.88
2017-03-20T05:18:18.686Z,11.85
2017-03-20T05:19:21.762Z,11.89
2017-03-20T05:20:18.937Z,12.00
2017-03-20T05:21:23.129Z,11.86
2017-03-20T05:22:14.334Z,11.98
2017-03-20T05:23:19.107Z,11.87
2017-03-20T05:24:15.295Z,11.78
2017-03-20T05:26:18.967Z,11.97
2017-03-20T05:27:21.127Z,11.97
2017-03-20T05:28:21.350Z,11.93
2017-03-20T05:29:19.618Z,11.91
2017-03-20T05:30:23.587Z,11.89
2017-03-20T05:31:21.936Z,11.97
2017-03-20T05:32:25.873Z,12.01
2017-03-20T05:33:19.107Z,11.81
2017-03-20T05:34:16.071Z,11.97
2017-03-20T05:35:19.208Z,11.98
2017-03-20T05:36:21.728Z,12.03
2017-03-20T05:37:14.172Z,11.95
2017-03-20T05:38:13.555Z,11.90
2017-03-20T05:39:19.496Z,11.96
2017-03-20T05:40:12.796Z,12.04
2017-03-20T05:41:13.677Z,12.05
2017-03-20T05:42:13.523Z,12.13
2017-03-20T05:43:19.238Z,12.03
2017-03-20T05:44:19.477Z,12.02
2017-03-20T05:45:25.576Z,12.04
2017-03-20T05:46:19.346Z,12.03
2017-03-20T05:47:19.311Z,12.06
2017-03-20T05:48:13.077Z,12.12
2017-03-20T05:49:13.676Z,12.16
2017-03-20T05:50:13.791Z,12.06
2017-03-20T05:51:18.746Z,11.99
2017-03-20T05:52:13.803Z,12.00
2017-03-20T05:53:19.342Z,12.02
2017-03-20T05:54:13.390Z,12.00
2017-03-20T05:55:19.577Z,11.93
2017-03-20T05:56:18.963Z,11.99
2017-03-20T05:57:18.766Z,12.02
2017-03-20T05:58:11.950Z,12.09
2017-03-20T05:59:18.637Z,11.97
2017-03-20T06:00:21.748Z,12.00
2017-03-20T06:01:26.466Z,12.03
2017-03-20T06:02:13.524Z,12.04
2017-03-20T06:03:13.553Z,11.99
2017-03-20T06:04:19.388Z,12.01
2017-03-20T06:05:19.576Z,11.93
2017-03-20T06:06:18.702Z,11.89
2017-03-20T06:07:19.344Z,11.91
2017-03-20T06:08:28.302Z,12.01
2017-03-20T06:09:15.393Z,12.07
2017-03-20T06:10:22.793Z,12.02
2017-03-20T06:11:16.985Z,12.01
2017-03-20T06:12:13.475Z,12.04
2017-03-20T06:13:13.415Z,12.00
2017-03-20T06:14:19.058Z,11.97
2017-03-20T06:15:12.459Z,11.91
2017-03-20T06:16:19.060Z,11.78
2017-03-20T06:17:13.427Z,11.88
2017-03-20T06:18:19.045Z,11.83
2017-03-20T06:19:21.750Z,11.84
2017-03-20T06:20:18.761Z,11.80
2017-03-20T06:21:17.932Z,11.62
2017-03-20T06:22:13.424Z,11.66
2017-03-20T06:23:19.220Z,11.59
2017-03-20T06:24:12.847Z,11.54
2017-03-20T06:25:19.344Z,11.65
2017-03-20T06:26:18.877Z,11.67
2017-03-20T06:27:13.136Z,11.67
2017-03-20T06:28:18.735Z,11.52
2017-03-20T06:29:13.779Z,11.57
2017-03-20T06:30:24.131Z,11.63
2017-03-20T06:31:21.319Z,11.54
2017-03-20T06:32:19.657Z,11.49
2017-03-20T06:33:19.696Z,11.49
2017-03-20T06:34:14.428Z,11.50
2017-03-20T06:35:18.119Z,11.38
2017-03-20T06:36:22.070Z,11.42
2017-03-20T06:37:13.453Z,11.53
2017-03-20T06:38:19.344Z,11.31
2017-03-20T06:39:23.598Z,11.32
2017-03-20T06:40:18.612Z,11.25
2017-03-20T06:41:13.127Z,11.20
2017-03-20T06:42:13.453Z,11.32
2017-03-20T06:43:17.739Z,11.50
2017-03-20T06:44:10.520Z,11.38
2017-03-20T06:45:23.411Z,11.44
2017-03-20T06:46:21.556Z,11.40
2017-03-20T06:47:28.346Z,11.28
2017-03-20T06:48:23.620Z,11.24
2017-03-20T06:49:20.910Z,11.33
2017-03-20T06:50:13.465Z,11.37
2017-03-20T06:51:13.277Z,11.38
2017-03-20T06:52:21.111Z,11.27
2017-03-20T06:53:13.766Z,11.34
2017-03-20T06:54:17.325Z,11.20
2017-03-20T06:55:13.833Z,11.31
2017-03-20T06:56:12.774Z,11.21
2017-03-20T06:57:14.935Z,11.35
2017-03-20T06:58:25.893Z,11.38
2017-03-20T06:59:14.557Z,11.42
2017-03-20T07:00:25.905Z,11.35
2017-03-20T07:01:13.558Z,11.36
2017-03-20T07:02:15.161Z,11.26
2017-03-20T07:03:13.934Z,11.24
2017-03-20T07:04:19.701Z,11.30
2017-03-20T07:05:14.206Z,11.18
2017-03-20T07:06:19.636Z,11.30
2017-03-20T07:07:21.629Z,11.35
2017-03-20T07:08:16.575Z,11.40
2017-03-20T07:09:19.102Z,11.34
2017-03-20T07:10:14.211Z,11.36
2017-03-20T07:11:13.221Z,11.31
2017-03-20T07:12:19.434Z,11.21
2017-03-20T07:13:19.703Z,11.13
2017-03-20T07:14:18.650Z,11.03
2017-03-20T07:15:20.629Z,11.05
2017-03-20T07:16:12.807Z,11.03
2017-03-20T07:17:12.573Z,11.07
2017-03-20T07:18:21.654Z,11.14
2017-03-20T07:19:13.873Z,11.14
2017-03-20T07:20:18.848Z,11.24
2017-03-20T07:21:27.485Z,11.29
2017-03-20T07:22:11.536Z,11.19
2017-03-20T07:23:13.519Z,11.16
2017-03-20T07:24:18.696Z,11.15
2017-03-20T07:25:13.155Z,11.03
2017-03-20T07:26:15.030Z,11.03
2017-03-20T07:27:19.463Z,10.88
2017-03-20T07:28:19.440Z,11.11
2017-03-20T07:29:28.089Z,11.10
2017-03-20T07:30:19.159Z,11.13
2017-03-20T07:31:19.201Z,11.10
2017-03-20T07:32:17.181Z,11.11
2017-03-20T07:33:18.873Z,11.03
2017-03-20T07:34:13.230Z,11.08
2017-03-20T07:35:26.001Z,11.03
2017-03-20T07:36:19.145Z,10.99
2017-03-20T07:37:19.288Z,10.86
2017-03-20T07:38:23.054Z,10.92
2017-03-20T07:39:17.296Z,10.94
2017-03-20T07:40:19.086Z,10.89
2017-03-20T07:41:12.129Z,11.00
2017-03-20T07:42:14.132Z,10.99
2017-03-20T07:43:18.653Z,11.01
2017-03-20T07:44:12.933Z,11.06
2017-03-20T07:45:13.600Z,11.03
2017-03-20T07:46:13.325Z,11.18
2017-03-20T07:47:28.509Z,11.04
2017-03-20T07:48:14.325Z,10.94
2017-03-20T07:49:13.752Z,10.95
2017-03-20T07:50:13.999Z,10.97
2017-03-20T07:51:19.189Z,11.06
2017-03-20T07:52:22.243Z,11.01
2017-03-20T07:53:12.475Z,10.92
2017-03-20T07:54:21.554Z,10.79
2017-03-20T07:55:13.672Z,10.75
2017-03-20T07:56:18.886Z,10.93
2017-03-20T07:57:27.894Z,10.97
2017-03-20T07:58:18.887Z,10.87
2017-03-20T07:59:13.335Z,10.82
2017-03-20T08:00:18.860Z,10.81
2017-03-20T08:01:14.879Z,10.88
2017-03-20T08:02:23.565Z,10.90
2017-03-20T08:03:18.864Z,11.00
2017-03-20T08:04:19.299Z,10.98
2017-03-20T08:05:14.864Z,10.98
2017-03-20T08:06:13.359Z,11.15
2017-03-20T08:07:19.625Z,11.14
2017-03-20T08:08:13.543Z,11.25
2017-03-20T08:09:13.298Z,11.24
2017-03-20T08:10:18.473Z,11.26
2017-03-20T08:11:14.567Z,11.22
2017-03-20T08:12:16.832Z,11.35
2017-03-20T08:13:18.886Z,11.42
2017-03-20T08:14:14.182Z,11.43
2017-03-20T09:04:52.596Z,12.08
2017-03-20T09:05:26.904Z,12.19
2017-03-20T09:06:19.086Z,12.42
2017-03-20T09:07:26.694Z,12.39
2017-03-20T09:08:12.768Z,12.42
2017-03-20T09:09:16.655Z,12.46
2017-03-20T09:10:18.737Z,12.56
2017-03-20T09:11:18.951Z,12.79
2017-03-20T09:12:13.358Z,12.58
2017-03-20T09:13:18.910Z,12.71
2017-03-20T09:14:18.620Z,12.79
2017-03-20T09:15:18.994Z,12.71
2017-03-20T09:16:18.590Z,12.64
2017-03-20T09:17:14.624Z,12.61
2017-03-20T09:18:14.269Z,12.44
2017-03-20T09:19:17.281Z,12.76
2017-03-20T09:20:13.807Z,12.76
2017-03-20T09:21:19.531Z,12.93
2017-03-20T09:22:12.901Z,13.10
2017-03-20T09:23:17.219Z,13.14
2017-03-20T09:24:19.078Z,13.31
2017-03-20T09:25:19.584Z,13.38
2017-03-20T09:26:28.574Z,13.27
2017-03-20T09:27:12.586Z,13.37
2017-03-20T09:28:13.712Z,13.27
2017-03-20T09:29:16.746Z,12.83
2017-03-20T09:30:19.455Z,12.79
2017-03-20T09:31:15.070Z,12.66
2017-03-20T09:32:27.575Z,12.80
2017-03-20T09:33:22.900Z,12.80
2017-03-20T09:34:18.899Z,13.02
2017-03-20T09:35:15.616Z,12.94
2017-03-20T09:36:19.030Z,12.71
2017-03-20T09:37:22.040Z,12.78
2017-03-20T09:38:13.205Z,12.82
2017-03-20T09:39:19.481Z,12.93
2017-03-20T09:40:13.669Z,12.97
2017-03-20T09:41:14.361Z,13.12
2017-03-20T09:42:14.417Z,13.12
2017-03-20T09:43:14.231Z,13.23
2017-03-20T09:44:13.571Z,13.11
2017-03-20T09:45:19.244Z,13.08
2017-03-20T09:46:13.323Z,13.24
2017-03-20T09:47:27.991Z,13.44
2017-03-20T09:48:16.639Z,13.19
2017-03-20T09:49:18.701Z,13.17
2017-03-20T09:50:13.807Z,13.33
2017-03-20T09:51:19.068Z,13.35
2017-03-20T09:52:19.295Z,13.35
2017-03-20T09:53:13.906Z,13.53
2017-03-20T09:54:22.384Z,13.46
2017-03-20T09:55:23.590Z,13.58
2017-03-20T09:56:22.019Z,13.62
2017-03-20T09:57:12.620Z,13.86
2017-03-20T09:58:13.439Z,13.74
2017-03-20T09:59:18.064Z,13.91
2017-03-20T10:00:22.820Z,13.69
2017-03-20T10:01:19.635Z,13.68
2017-03-20T10:02:12.923Z,13.72
2017-03-20T10:03:14.437Z,13.85
2017-03-20T10:04:15.357Z,13.70
2017-03-20T10:05:23.673Z,13.85
2017-03-20T10:06:19.330Z,13.50
2017-03-20T10:07:18.759Z,13.75
2017-03-20T10:08:13.764Z,13.64
2017-03-20T10:09:19.080Z,13.83
2017-03-20T10:10:13.172Z,13.79
2017-03-20T10:11:22.720Z,13.48
2017-03-20T10:12:15.131Z,13.61
2017-03-20T10:13:19.543Z,13.67
2017-03-20T10:14:19.330Z,13.84
2017-03-20T10:15:19.059Z,13.86
2017-03-20T10:16:19.250Z,13.71
2017-03-20T10:17:13.758Z,13.66
2017-03-20T10:18:28.190Z,13.58
2017-03-20T10:19:19.337Z,13.47
2017-03-20T10:20:24.549Z,13.39
2017-03-20T10:21:12.598Z,13.24
2017-03-20T10:22:13.225Z,13.36
2017-03-20T10:23:15.019Z,13.39
2017-03-20T10:24:18.858Z,13.44
2017-03-20T10:25:14.059Z,13.55
2017-03-20T10:26:16.788Z,13.61
2017-03-20T10:27:17.061Z,13.61
2017-03-20T10:28:15.065Z,13.86
2017-03-20T10:29:22.801Z,14.03
2017-03-20T10:30:17.817Z,13.81
2017-03-20T10:31:18.924Z,13.69
2017-03-20T10:32:13.587Z,13.78
2017-03-20T10:33:13.768Z,14.17
2017-03-20T10:34:18.859Z,14.28
2017-03-20T10:35:17.004Z,14.08
2017-03-20T10:36:21.811Z,14.27
2017-03-20T10:37:21.919Z,14.29
2017-03-20T10:38:14.053Z,14.31
2017-03-20T10:39:14.957Z,14.31
2017-03-20T10:40:19.363Z,14.46
2017-03-20T10:41:13.789Z,14.46
2017-03-20T10:42:12.955Z,14.65
2017-03-20T10:43:13.038Z,14.54
2017-03-20T10:44:18.771Z,14.47
2017-03-20T10:45:23.080Z,14.51
2017-03-20T10:46:20.917Z,14.48
2017-03-20T10:47:13.799Z,14.61
2017-03-20T10:48:16.911Z,14.59
2017-03-20T10:49:20.729Z,14.60
2017-03-20T10:50:23.270Z,14.40
2017-03-20T10:51:22.726Z,14.06
2017-03-20T10:52:15.995Z,14.55
2017-03-20T10:53:15.060Z,14.95
2017-03-20T10:54:24.313Z,14.76
2017-03-20T10:55:13.304Z,14.51
2017-03-20T10:56:18.941Z,14.70
2017-03-20T10:57:14.941Z,14.94
2017-03-20T10:58:17.145Z,14.95
2017-03-20T10:59:13.373Z,15.07
2017-03-20T11:00:17.650Z,15.19
2017-03-20T11:01:16.981Z,15.07
2017-03-20T11:02:14.558Z,14.86
2017-03-20T11:03:18.680Z,14.88
2017-03-20T11:04:15.498Z,14.78
2017-03-20T11:05:28.593Z,14.90
2017-03-20T11:06:19.115Z,14.97
2017-03-20T11:07:12.982Z,14.87
2017-03-20T11:08:17.781Z,14.87
2017-03-20T11:09:18.886Z,14.72
2017-03-20T11:10:14.718Z,14.49
2017-03-20T11:11:14.839Z,14.62
2017-03-20T11:12:13.949Z,14.62
2017-03-20T11:13:14.624Z,14.66
2017-03-20T11:14:21.293Z,14.38
2017-03-20T11:15:14.188Z,14.16
2017-03-20T11:16:19.283Z,14.17
2017-03-20T11:17:17.405Z,14.63
2017-03-20T11:18:16.664Z,14.75
2017-03-20T11:19:12.787Z,14.98
2017-03-20T11:20:12.633Z,15.20
2017-03-20T11:21:21.939Z,15.07
2017-03-20T11:22:28.012Z,14.97
2017-03-20T11:23:16.593Z,15.09
2017-03-20T11:24:19.643Z,14.80
2017-03-20T11:25:16.774Z,14.94
2017-03-20T11:26:18.983Z,14.93
2017-03-20T11:27:16.551Z,14.91
2017-03-20T11:28:19.469Z,14.92
2017-03-20T11:29:22.610Z,14.80
2017-03-20T11:30:22.619Z,14.85
2017-03-20T11:31:13.851Z,14.96
2017-03-20T11:32:13.531Z,15.20
2017-03-20T11:33:13.831Z,15.18
2017-03-20T11:34:19.475Z,15.27
2017-03-20T11:35:20.580Z,15.10
2017-03-20T11:36:15.407Z,15.13
2017-03-20T11:37:15.448Z,15.19
2017-03-20T11:38:16.992Z,15.16
2017-03-20T11:39:21.639Z,15.18
2017-03-20T11:40:21.849Z,14.98
2017-03-20T11:41:19.342Z,15.10
2017-03-20T11:42:13.869Z,14.94
2017-03-20T11:43:14.175Z,14.96
2017-03-20T11:44:17.114Z,14.88
2017-03-20T11:45:19.338Z,14.74
2017-03-20T11:46:12.127Z,14.78
2017-03-20T11:47:12.015Z,14.71
2017-03-20T11:48:18.937Z,14.63
2017-03-20T11:49:19.119Z,14.72
2017-03-20T11:50:27.865Z,14.74
2017-03-20T11:51:12.970Z,14.63
2017-03-20T11:52:13.113Z,14.76
2017-03-20T11:53:19.180Z,14.84
2017-03-20T11:54:16.622Z,14.93
2017-03-20T11:55:19.468Z,15.08
2017-03-20T11:56:18.746Z,15.16
2017-03-20T11:57:14.755Z,15.31
2017-03-20T11:58:19.348Z,15.07
2017-03-20T11:59:13.387Z,15.00
2017-03-20T12:00:27.210Z,15.07
2017-03-20T12:01:13.088Z,15.02
2017-03-20T12:02:22.051Z,14.97
2017-03-20T12:03:14.532Z,14.92
2017-03-20T12:04:12.956Z,14.93
2017-03-20T12:05:13.960Z,15.02
2017-03-20T12:06:19.021Z,15.14
2017-03-20T12:07:14.269Z,15.08
2017-03-20T12:08:15.216Z,14.97
2017-03-20T12:09:19.150Z,14.88
2017-03-20T12:10:14.868Z,14.87
2017-03-20T12:11:15.173Z,14.99
2017-03-20T12:12:14.684Z,14.73
2017-03-20T12:13:15.242Z,14.91
2017-03-20T12:14:19.378Z,14.68
2017-03-20T12:15:13.535Z,14.86
2017-03-20T12:16:18.647Z,14.92
2017-03-20T12:17:14.519Z,14.86
2017-03-20T12:18:15.461Z,14.81
2017-03-20T12:19:22.640Z,14.91
2017-03-20T12:20:22.844Z,15.06
2017-03-20T12:21:21.998Z,15.00
2017-03-20T12:22:19.163Z,14.95
2017-03-20T12:23:24.581Z,14.93
2017-03-20T12:24:22.170Z,14.88
2017-03-20T12:25:19.330Z,14.93
2017-03-20T12:26:19.478Z,14.92
2017-03-20T12:27:21.993Z,14.99
2017-03-20T12:28:15.439Z,15.09
2017-03-20T12:29:22.571Z,15.13
2017-03-20T12:30:19.481Z,15.17
2017-03-20T12:31:12.980Z,15.33
2017-03-20T12:32:14.569Z,15.30
2017-03-20T12:33:18.705Z,15.26
2017-03-20T12:34:18.921Z,15.31
2017-03-20T12:35:23.935Z,15.40
2017-03-20T12:36:26.751Z,15.48
2017-03-20T12:37:19.289Z,15.44
2017-03-20T12:38:13.318Z,15.38
2017-03-20T12:39:13.702Z,15.40
2017-03-20T12:40:13.569Z,15.47
2017-03-20T12:41:13.291Z,15.78
2017-03-20T12:42:23.514Z,15.84
2017-03-20T12:43:18.590Z,16.09
2017-03-20T12:44:13.743Z,16.40
2017-03-20T12:45:27.032Z,16.37
2017-03-20T12:46:22.588Z,16.32
2017-03-20T12:47:13.330Z,16.38
2017-03-20T12:48:14.026Z,16.05
2017-03-20T12:49:22.132Z,16.14
2017-03-20T12:50:18.657Z,16.36
2017-03-20T12:51:14.027Z,16.61
2017-03-20T12:52:18.664Z,16.73
2017-03-20T12:53:15.270Z,16.57
2017-03-20T12:54:18.440Z,16.34
2017-03-20T12:55:19.639Z,16.05
2017-03-20T12:56:11.568Z,15.82
2017-03-20T12:57:12.840Z,15.52
2017-03-20T12:58:22.671Z,15.49
2017-03-20T12:59:13.284Z,15.66
2017-03-20T13:00:15.619Z,15.84
2017-03-20T13:01:12.424Z,16.05
2017-03-20T13:02:17.306Z,16.17
2017-03-20T13:03:22.728Z,16.30
2017-03-20T13:04:17.591Z,16.31
2017-03-20T13:05:21.718Z,16.35
2017-03-20T13:06:22.752Z,16.38
2017-03-20T13:07:15.338Z,16.29
2017-03-20T13:08:18.302Z,16.66
2017-03-20T13:09:19.000Z,17.02
2017-03-20T13:10:14.507Z,17.11
2017-03-20T13:11:19.247Z,16.79
2017-03-20T13:12:27.024Z,16.70
2017-03-20T13:13:13.995Z,16.48
2017-03-20T13:14:19.529Z,16.70
2017-03-20T13:15:22.297Z,16.83
2017-03-20T13:16:14.273Z,16.47
2017-03-20T13:17:14.406Z,16.36
2017-03-20T13:18:18.683Z,16.43
2017-03-20T13:19:14.667Z,16.32
2017-03-20T13:20:22.644Z,16.45
2017-03-20T13:21:18.778Z,16.52
2017-03-20T13:22:19.363Z,16.33
2017-03-20T13:23:14.877Z,16.20
2017-03-20T13:24:22.573Z,16.41
2017-03-20T13:25:14.720Z,16.38
2017-03-20T13:26:19.394Z,16.43
2017-03-20T13:27:19.568Z,16.62
2017-03-20T13:28:16.818Z,16.57
2017-03-20T13:29:15.724Z,16.46
2017-03-20T13:30:22.320Z,16.49
2017-03-20T13:31:21.937Z,16.47
2017-03-20T13:32:19.162Z,16.44
2017-03-20T13:33:19.297Z,16.46
2017-03-20T13:34:15.066Z,16.45
2017-03-20T13:35:24.452Z,16.35
2017-03-20T13:36:14.898Z,16.60
2017-03-20T13:37:21.730Z,17.14
2017-03-20T13:38:13.419Z,17.33
2017-03-20T13:39:16.387Z,17.07
2017-03-20T13:40:19.623Z,16.77
2017-03-20T13:41:18.829Z,16.95
2017-03-20T13:42:16.929Z,17.44
2017-03-20T13:43:22.721Z,17.99
2017-03-20T13:44:13.886Z,18.52